Jameson, Missouri
Current Conditions -  °F | °C
As of 11:53 AM on Thursday 27 Nov 2014 (Local Time) from KLWD Reporting Station
Overcast Overcast  
Wind Chill:   Ceiling: 4400
Heat Index: 19°   Visibility: 10mi
Dew Point: 10°   Wind: 8mph
Humidity: 68%   Direction: 300°WNW
Pressure: 30.5"   Gusts: NA
Location:  40.01°N, 93.98°W
Report Text: KLWD 271753Z AUTO 30007KT 10SM BKN044 OVC050 M07/M12 A3050 RMK AO2 SLP347 T10721122 11072 21111 50004
Loading
Personal Weather Stations






























Interactive Weather Map New forecast layout! Learn more

10-Day Weather Forecast

Advertisements
Track Severe Weather on mobile